Havana, Ohio
Current Conditions -  °F | °C
As of 6:52 PM on Friday 21 Nov 2014 (Local Time) from KMFD Reporting Station
Clear Clear  
Wind Chill: 10°   Ceiling: Unl
Heat Index: 17°   Visibility: 10mi
Dew Point:   Wind: 5mph
Humidity: 68%   Direction: 130°SE
Pressure: 30.42"   Gusts: NA
Location:  41.0768°N, 82.7214°W
Report Text: KMFD 212352Z 13004KT 10SM CLR M08/M13 A3042 RMK AO2 SLP325 T10831133 11044 21083 58010
Loading
Personal Weather Stations






























Interactive Weather Map New forecast layout! Learn more

10-Day Weather Forecast

Advertisements
Track Severe Weather on mobile